createdAt,value
2022-11-25T00:19:06.953Z,1017
2022-11-25T00:49:07.200Z,1017
2022-11-25T01:19:20.612Z,1017
2022-11-25T01:49:28.892Z,1017
2022-11-25T02:49:45.483Z,1017
2022-11-25T03:50:03.069Z,1016
2022-11-25T04:20:10.481Z,1016
2022-11-25T04:50:18.227Z,1016
2022-11-25T05:20:29.445Z,1017
2022-11-25T05:50:39.272Z,1017
2022-11-25T06:20:49.188Z,1017
2022-11-25T06:51:02.277Z,1018
2022-11-25T07:21:10.067Z,1018
2022-11-25T07:51:22.832Z,1019
2022-11-25T08:51:42.311Z,1019
2022-11-25T09:21:54.089Z,1019
2022-11-25T09:53:10.248Z,1019
2022-11-25T10:23:13.882Z,1020
2022-11-25T10:53:24.708Z,1020
2022-11-25T11:23:38.058Z,1020
2022-11-25T11:53:50.244Z,1020
2022-11-25T12:23:56.229Z,1020
2022-11-25T12:54:09.307Z,1021
2022-11-25T13:24:16.400Z,1021
2022-11-25T13:54:28.413Z,1021
2022-11-25T14:54:42.725Z,1022
2022-11-25T15:24:55.459Z,1023
2022-11-25T16:26:13.052Z,1023
2022-11-25T16:56:25.133Z,1024
2022-11-25T17:26:34.741Z,1024
2022-11-25T17:56:47.306Z,1025
2022-11-25T18:26:54.225Z,1025
2022-11-25T18:57:04.853Z,1025
2022-11-25T19:28:17.786Z,1026
2022-11-25T20:28:27.378Z,1027
2022-11-25T20:58:33.760Z,1027
2022-11-25T21:28:46.735Z,1027
2022-11-25T22:00:07.000Z,1028
2022-11-25T23:00:17.031Z,1028
2022-11-25T23:31:37.105Z,1028
